Time;durP1;ratioP1;P1;durP2;ratioP2;P2;SDS_P1;SDS_P2;PMS_P1;PMS_P2;Temp;Humidity;BMP_temperature;BMP_pressure;BME280_temperature;BME280_humidity;BME280_pressure;Samples;Min_cycle;Max_cycle;Signal;HPM_P1;HPM_P2
2023/03/25 00:01:31;;;;;;;12.82;6.43;;;;;;;9.15;82.67;100122.69;5137333;27;20122;-56
2023/03/25 00:03:59;;;;;;;12.70;6.60;;;;;;;9.10;83.63;100129.16;5138013;27;20110;-56
2023/03/25 00:06:29;;;;;;;13.57;6.78;;;;;;;9.17;83.11;100129.59;5136133;27;20026;-56
2023/03/25 00:08:54;;;;;;;11.15;6.25;;;;;;;9.16;83.30;100124.41;5156065;27;20031;-56
2023/03/25 00:11:20;;;;;;;9.77;5.85;;;;;;;9.19;82.36;100129.50;5154198;27;20015;-56
2023/03/25 00:13:47;;;;;;;10.25;6.40;;;;;;;9.19;82.36;100135.66;5156254;27;20019;-57
2023/03/25 00:16:15;;;;;;;13.23;6.68;;;;;;;9.22;81.82;100138.09;5155799;27;20031;-56
2023/03/25 00:18:40;;;;;;;9.77;6.05;;;;;;;9.08;82.23;100140.84;5156403;27;20059;-57
2023/03/25 00:21:10;;;;;;;14.98;6.22;;;;;;;9.10;82.56;100130.97;5146428;27;20031;-57
2023/03/25 00:23:36;;;;;;;10.13;6.22;;;;;;;9.18;81.32;100131.31;5119210;27;20034;-56
2023/03/25 00:26:02;;;;;;;12.93;6.20;;;;;;;9.11;81.90;100119.41;5136048;27;20112;-57
2023/03/25 00:28:32;;;;;;;10.73;5.85;;;;;;;9.08;81.65;100116.97;5135273;27;20023;-56
2023/03/25 00:31:11;;;;;;;9.82;6.38;;;;;;;9.13;81.55;100136.06;5116102;27;20043;-56
2023/03/25 00:33:37;;;;;;;11.50;5.82;;;;;;;9.06;81.92;100122.38;5135130;27;20102;-56
2023/03/25 00:36:04;;;;;;;9.18;6.30;;;;;;;9.03;81.79;100124.38;5136147;27;20109;-56
2023/03/25 00:38:32;;;;;;;12.38;6.03;;;;;;;9.03;81.62;100117.28;5134967;27;20034;-57
2023/03/25 00:41:21;;;;;;;10.63;6.38;;;;;;;9.03;81.53;100116.41;5134662;27;20501;-56
2023/03/25 00:43:47;;;;;;;15.88;7.03;;;;;;;9.03;81.67;100117.28;5135007;27;20023;-57
2023/03/25 00:46:13;;;;;;;14.38;6.65;;;;;;;9.00;81.89;100120.16;5133448;27;20031;-56
2023/03/25 00:48:38;;;;;;;10.15;6.28;;;;;;;9.04;81.57;100115.47;5135031;27;20068;-56
2023/03/25 00:51:08;;;;;;;7.55;6.10;;;;;;;9.09;80.88;100119.53;5134543;27;20054;-56
2023/03/25 00:53:35;;;;;;;10.90;5.95;;;;;;;8.96;81.73;100102.72;5134682;27;20127;-56
2023/03/25 00:56:01;;;;;;;9.77;6.20;;;;;;;9.06;81.26;100116.25;5117041;27;20064;-56
2023/03/25 00:58:27;;;;;;;11.38;6.50;;;;;;;8.90;82.29;100118.22;5144187;27;20072;-56
2023/03/25 01:00:55;;;;;;;10.90;5.78;;;;;;;9.02;81.30;100118.22;5136143;27;20030;-56
2023/03/25 01:03:29;;;;;;;11.35;6.32;;;;;;;9.05;81.17;100112.72;5154850;27;20070;-56
2023/03/25 01:05:57;;;;;;;8.82;5.00;;;;;;;8.95;82.30;100110.81;5154951;27;20027;-57
2023/03/25 01:08:24;;;;;;;9.95;5.85;;;;;;;9.00;80.96;100098.94;5148922;27;20121;-57
2023/03/25 01:10:52;;;;;;;9.50;5.72;;;;;;;8.98;81.12;100123.84;5113743;28;20054;-56
2023/03/25 01:13:17;;;;;;;7.03;5.68;;;;;;;8.97;81.01;100114.19;5113756;28;20028;-57
2023/03/25 01:15:45;;;;;;;7.63;6.53;;;;;;;8.87;82.45;100108.66;5135488;27;20477;-56
2023/03/25 01:18:10;;;;;;;8.02;6.22;;;;;;;8.86;82.58;100105.19;5154574;27;20041;-56
2023/03/25 01:20:38;;;;;;;10.07;5.57;;;;;;;8.85;82.04;100103.47;5120539;27;20023;-56
2023/03/25 01:23:03;;;;;;;9.25;5.93;;;;;;;8.79;82.80;100108.34;5098633;27;20027;-56
2023/03/25 01:25:29;;;;;;;7.88;6.13;;;;;;;8.73;83.59;100093.69;5115360;27;20023;-56
2023/03/25 01:27:57;;;;;;;9.65;5.57;;;;;;;8.84;82.64;100117.69;5134148;27;20614;-56
2023/03/25 01:30:22;;;;;;;8.88;6.60;;;;;;;8.66;84.24;100102.19;5115862;27;20051;-56
2023/03/25 01:32:47;;;;;;;8.75;6.32;;;;;;;8.65;84.50;100101.34;5115510;27;20019;-56
2023/03/25 01:35:13;;;;;;;9.55;5.72;;;;;;;8.63;84.18;100105.88;5133767;27;20030;-56
2023/03/25 01:37:38;;;;;;;7.82;5.90;;;;;;;8.68;83.15;100100.25;5133904;27;20463;-57
2023/03/25 01:40:07;;;;;;;10.20;6.82;;;;;;;8.69;83.23;100115.22;5134892;27;20022;-56
2023/03/25 01:42:32;;;;;;;13.00;6.50;;;;;;;8.75;82.98;100117.47;5133764;27;20274;-56
2023/03/25 01:45:20;;;;;;;7.90;6.25;;;;;;;8.71;83.88;100119.47;5133116;27;20466;-56
2023/03/25 01:47:50;;;;;;;6.30;5.70;;;;;;;8.57;84.98;100099.19;5116714;27;20019;-56
2023/03/25 01:50:16;;;;;;;;;;;;;;;8.74;84.32;100111.31;5134349;27;20072;-57
2023/03/25 01:52:46;;;;;;;9.23;5.60;;;;;;;8.60;84.29;100088.38;5115598;27;19911;-56
2023/03/25 01:55:12;;;;;;;9.90;5.93;;;;;;;8.63;84.06;100095.28;5133667;27;20019;-56
2023/03/25 01:57:42;;;;;;;12.90;5.78;;;;;;;8.62;83.99;100106.84;5133549;27;20045;-56
2023/03/25 02:00:08;;;;;;;;;;;;;;;8.69;83.86;100105.47;5120202;27;20083;-56
2023/03/25 02:02:38;;;;;;;6.57;5.60;;;;;;;8.54;84.12;100109.16;5137639;27;19915;-56
2023/03/25 02:05:09;;;;;;;8.10;5.65;;;;;;;8.63;83.85;100103.22;5134279;27;20497;-56
2023/03/25 02:07:38;;;;;;;11.02;5.93;;;;;;;8.55;84.13;100100.22;5133079;27;20037;-57
2023/03/25 02:10:06;;;;;;;6.97;5.05;;;;;;;8.55;84.19;100103.72;5133082;27;20027;-57
2023/03/25 02:12:32;;;;;;;9.43;6.20;;;;;;;8.54;85.34;100094.09;5134213;27;20033;-56
2023/03/25 02:15:00;;;;;;;8.95;5.93;;;;;;;8.51;86.07;100096.09;5114325;27;20106;-57
2023/03/25 02:18:00;;;;;;;7.88;5.57;;;;;;;8.63;85.47;100087.31;5114656;27;20551;-56
2023/03/25 02:20:53;;;;;;;9.07;5.35;;;;;;;8.76;84.48;100095.28;5132878;27;20034;-56
2023/03/25 02:23:27;;;;;;;6.97;5.18;;;;;;;8.58;85.26;100098.22;5134042;27;20038;-56
2023/03/25 02:26:12;;;;;;;7.18;5.75;;;;;;;8.60;84.55;100092.81;5132751;27;20628;-56
2023/03/25 02:29:08;;;;;;;9.20;5.75;;;;;;;8.59;84.33;100096.44;5114022;28;20023;-54
2023/03/25 02:31:50;;;;;;;7.78;5.93;;;;;;;8.58;85.06;100102.69;5114117;27;20030;-56
2023/03/25 02:34:28;;;;;;;8.38;5.75;;;;;;;8.67;84.18;100096.75;5139454;27;20477;-56
2023/03/25 02:37:12;;;;;;;8.30;5.45;;;;;;;8.61;84.69;100110.41;5134904;27;20074;-56
2023/03/25 02:39:54;;;;;;;8.23;5.97;;;;;;;8.68;84.77;100085.22;5141488;27;20529;-56
2023/03/25 02:42:31;;;;;;;12.18;6.05;;;;;;;8.58;85.37;100087.63;5132925;27;20478;-56
2023/03/25 02:45:11;;;;;;;9.52;6.18;;;;;;;8.55;86.42;100086.97;5132301;28;20049;-56
2023/03/25 02:47:43;;;;;;;10.38;6.57;;;;;;;8.41;86.66;100087.88;5114221;28;20023;-56
2023/03/25 02:50:14;;;;;;;8.35;6.35;;;;;;;8.46;88.23;100095.53;5144661;27;20034;-56
2023/03/25 02:52:48;;;;;;;11.23;5.35;;;;;;;8.44;88.83;100100.94;5153754;27;20022;-56
2023/03/25 02:55:17;;;;;;;9.30;6.05;;;;;;;8.35;90.26;100075.03;5153405;27;20070;-56
2023/03/25 02:57:46;;;;;;;8.68;5.15;;;;;;;8.29;90.90;100084.22;5134978;27;20015;-56
2023/03/25 03:00:16;;;;;;;10.02;6.30;;;;;;;8.24;91.12;100074.91;5132721;27;20023;-56
2023/03/25 03:02:49;;;;;;;10.63;6.35;;;;;;;8.26;91.26;100072.97;5153549;27;20032;-56
2023/03/25 03:05:43;;;;;;;10.10;6.90;;;;;;;8.30;91.83;100079.78;5152879;27;20590;-56
2023/03/25 03:08:18;;;;;;;10.65;6.03;;;;;;;8.35;90.84;100089.13;5150241;27;20042;-56
2023/03/25 03:10:46;;;;;;;9.95;5.82;;;;;;;8.28;90.57;100076.38;5143704;27;20068;-56
2023/03/25 03:13:24;;;;;;;12.57;7.05;;;;;;;8.25;90.50;100076.59;5132735;28;20076;-56
2023/03/25 03:16:38;;;;;;;11.48;6.75;;;;;;;8.39;90.32;100069.47;5131921;27;20092;-56
2023/03/25 03:19:22;;;;;;;11.27;6.55;;;;;;;8.26;92.19;100060.56;5114396;28;20106;-57
2023/03/25 03:22:12;;;;;;;15.45;7.20;;;;;;;8.24;92.48;100061.66;5114947;28;20362;-56
2023/03/25 03:25:28;;;;;;;12.82;7.05;;;;;;;8.22;91.81;100069.69;5135558;27;20024;-56
2023/03/25 03:28:07;;;;;;;13.77;6.28;;;;;;;8.18;92.25;100062.91;5126277;28;20065;-56
2023/03/25 03:30:45;;;;;;;10.90;6.20;;;;;;;8.21;92.25;100070.66;5131564;28;20047;-57
2023/03/25 03:33:31;;;;;;;10.40;5.75;;;;;;;8.18;92.07;100066.41;5132445;28;20034;-56
2023/03/25 03:36:06;;;;;;;11.05;5.97;;;;;;;8.26;90.53;100071.19;5131893;27;20023;-56
2023/03/25 03:38:37;;;;;;;14.68;6.45;;;;;;;8.18;91.85;100069.06;5134537;27;20553;-56
2023/03/25 03:41:18;;;;;;;13.23;6.18;;;;;;;8.32;89.51;100075.22;5126368;27;20027;-56
2023/03/25 03:43:51;;;;;;;14.70;6.93;;;;;;;8.26;90.04;100078.28;5136098;27;20027;-56
2023/03/25 03:46:23;;;;;;;14.13;6.45;;;;;;;8.32;89.69;100069.91;5136576;27;20027;-56
2023/03/25 03:48:53;;;;;;;13.00;6.82;;;;;;;8.27;90.12;100067.59;5135781;27;20030;-56
2023/03/25 03:51:35;;;;;;;14.13;6.78;;;;;;;8.28;90.37;100068.44;5136104;27;20537;-56
2023/03/25 03:54:06;;;;;;;10.23;5.90;;;;;;;8.24;90.36;100059.00;5135578;27;20023;-56
2023/03/25 03:56:40;;;;;;;12.80;7.13;;;;;;;8.21;90.62;100073.31;5136801;27;20019;-57
2023/03/25 03:59:33;;;;;;;12.10;6.03;;;;;;;8.11;90.33;100061.59;5135835;27;20058;-56
2023/03/25 04:02:02;;;;;;;18.73;7.10;;;;;;;8.16;90.59;100068.28;5094447;27;20035;-56
2023/03/25 04:04:27;;;;;;;13.95;7.18;;;;;;;8.18;89.84;100071.69;5116876;27;20027;-57
2023/03/25 04:07:03;;;;;;;14.50;7.18;;;;;;;8.21;89.43;100078.59;5149051;27;20027;-57
2023/03/25 04:09:39;;;;;;;14.93;7.25;;;;;;;8.19;90.02;100073.38;5156259;27;20022;-56
2023/03/25 04:12:08;;;;;;;12.25;6.55;;;;;;;8.22;89.31;100075.00;5140693;27;20023;-56
2023/03/25 04:14:35;;;;;;;15.02;7.57;;;;;;;8.17;89.55;100059.38;5116425;27;20045;-56
2023/03/25 04:17:01;;;;;;;10.98;6.47;;;;;;;8.14;89.83;100078.13;5135038;27;20035;-56
2023/03/25 04:19:26;;;;;;;12.85;6.60;;;;;;;8.14;90.12;100082.59;5134998;27;20042;-56
2023/03/25 04:21:52;;;;;;;11.90;5.75;;;;;;;8.07;90.00;100081.28;5136517;27;20023;-56
2023/03/25 04:24:18;;;;;;;10.40;6.13;;;;;;;8.09;90.40;100072.31;5134963;27;20023;-56
2023/03/25 04:26:44;;;;;;;11.70;6.10;;;;;;;8.06;90.64;100064.56;5116715;27;20507;-56
2023/03/25 04:29:12;;;;;;;11.10;6.38;;;;;;;8.08;90.22;100075.88;5135123;27;20047;-56
2023/03/25 04:31:44;;;;;;;15.50;6.50;;;;;;;8.08;90.64;100083.81;5135624;27;20125;-56
2023/03/25 04:34:10;;;;;;;10.43;6.00;;;;;;;8.08;90.22;100073.22;5135103;27;20069;-57
2023/03/25 04:36:41;;;;;;;12.05;6.03;;;;;;;8.09;89.88;100095.25;5116651;27;20073;-57
2023/03/25 04:39:07;;;;;;;11.90;6.22;;;;;;;8.13;89.64;100068.50;5135125;27;20027;-56
2023/03/25 04:41:33;;;;;;;10.52;5.47;;;;;;;8.11;90.87;100075.69;5134822;27;20106;-56
2023/03/25 04:43:58;;;;;;;13.45;6.70;;;;;;;8.11;90.67;100078.31;5153165;27;20105;-56
2023/03/25 04:46:24;;;;;;;12.75;6.30;;;;;;;8.09;91.63;100076.72;5154610;27;20049;-56
2023/03/25 04:48:52;;;;;;;9.23;5.97;;;;;;;8.11;91.21;100080.13;5155718;27;20034;-56
2023/03/25 04:51:18;;;;;;;11.40;6.00;;;;;;;8.06;91.74;100085.75;5155290;27;20101;-56
2023/03/25 04:53:44;;;;;;;9.88;6.53;;;;;;;8.10;90.86;100073.16;5148400;27;20018;-56
2023/03/25 04:56:16;;;;;;;9.80;6.07;;;;;;;8.10;91.54;100078.44;5116568;27;20022;-56
2023/03/25 04:58:42;;;;;;;10.50;6.68;;;;;;;8.03;91.45;100077.13;5134882;27;20469;-56
2023/03/25 05:01:31;;;;;;;10.38;6.57;;;;;;;8.00;92.53;100078.19;5133959;27;20019;-56
2023/03/25 05:04:05;;;;;;;12.87;6.03;;;;;;;8.00;92.61;100069.38;5135871;27;20023;-56
2023/03/25 05:06:33;;;;;;;12.20;6.47;;;;;;;8.00;91.78;100074.69;5134437;27;20034;-57
2023/03/25 05:09:00;;;;;;;7.63;5.63;;;;;;;7.97;92.95;100065.13;5134571;27;20023;-56
2023/03/25 05:11:27;;;;;;;12.10;6.18;;;;;;;8.02;92.87;100071.00;5134235;27;20027;-57
2023/03/25 05:13:53;;;;;;;10.23;6.50;;;;;;;7.89;93.40;100052.41;5131390;27;20030;-56
2023/03/25 05:16:18;;;;;;;12.88;6.80;;;;;;;7.92;93.29;100061.97;5141441;27;20529;-56
2023/03/25 05:18:44;;;;;;;12.00;6.28;;;;;;;7.90;94.00;100062.03;5134274;27;20041;-56
2023/03/25 05:21:10;;;;;;;11.85;6.65;;;;;;;7.91;93.43;100061.13;5115888;27;20046;-56
2023/03/25 05:23:35;;;;;;;11.93;6.15;;;;;;;7.92;92.49;100065.44;5134219;27;20015;-56
2023/03/25 05:26:02;;;;;;;11.05;6.57;;;;;;;7.92;93.66;100081.34;5134872;27;20122;-56
2023/03/25 05:28:28;;;;;;;10.77;6.40;;;;;;;8.00;91.90;100079.97;5115502;27;20030;-56
2023/03/25 05:30:53;;;;;;;12.60;6.95;;;;;;;8.02;90.69;100092.16;5132989;27;20058;-57
2023/03/25 05:33:19;;;;;;;9.85;5.75;;;;;;;8.00;90.52;100091.44;5135193;27;20038;-56
2023/03/25 05:35:45;;;;;;;11.85;6.13;;;;;;;8.08;90.13;100082.97;5115277;27;20430;-56
2023/03/25 05:38:12;;;;;;;11.52;6.28;;;;;;;8.06;89.76;100095.47;5134092;27;20348;-57
2023/03/25 05:40:40;;;;;;;8.95;6.68;;;;;;;8.03;90.30;100090.38;5115148;27;20034;-56
2023/03/25 05:43:06;;;;;;;9.85;6.30;;;;;;;8.03;89.75;100090.38;5120726;27;20404;-56
2023/03/25 05:45:34;;;;;;;9.75;6.20;;;;;;;8.07;89.13;100086.59;5134865;27;20056;-56
2023/03/25 05:48:00;;;;;;;11.82;6.60;;;;;;;8.02;89.40;100086.88;5154326;27;20389;-56
2023/03/25 05:50:27;;;;;;;9.73;6.78;;;;;;;8.07;89.03;100094.53;5154066;27;20031;-56
2023/03/25 05:52:54;;;;;;;14.23;7.10;;;;;;;8.12;87.94;100095.94;5142379;27;20114;-57
2023/03/25 05:55:21;;;;;;;14.45;7.03;;;;;;;8.09;88.54;100104.09;5133075;27;20061;-56
2023/03/25 05:57:46;;;;;;;13.77;7.07;;;;;;;8.12;87.90;100108.34;5115191;27;20019;-56
2023/03/25 06:00:14;;;;;;;11.82;7.10;;;;;;;8.22;86.64;100120.03;5132893;27;20390;-55
2023/03/25 06:02:41;;;;;;;12.75;6.88;;;;;;;8.16;86.95;100110.66;5121932;27;20565;-56
2023/03/25 06:05:08;;;;;;;12.82;7.10;;;;;;;8.11;87.61;100103.97;5153822;27;20029;-56
2023/03/25 06:07:38;;;;;;;15.10;7.15;;;;;;;8.07;87.46;100113.91;5152223;27;20023;-56
2023/03/25 06:10:04;;;;;;;13.35;7.05;;;;;;;8.13;86.61;100113.53;5153863;27;20030;-56
2023/03/25 06:12:32;;;;;;;12.80;7.43;;;;;;;8.05;87.34;100113.16;5135073;27;20059;-56
2023/03/25 06:14:58;;;;;;;12.20;7.30;;;;;;;8.07;86.79;100123.66;5153170;27;20019;-56
2023/03/25 06:17:24;;;;;;;12.40;6.72;;;;;;;7.99;87.48;100131.25;5148285;27;20390;-56
2023/03/25 06:19:50;;;;;;;12.05;6.88;;;;;;;8.05;87.52;100117.59;5114579;27;20023;-56
2023/03/25 06:22:19;;;;;;;12.13;7.15;;;;;;;8.01;86.30;100124.06;5133105;27;20026;-56
2023/03/25 06:24:45;;;;;;;16.52;7.65;;;;;;;8.05;87.38;100114.97;5114299;27;20031;-56
2023/03/25 06:27:16;;;;;;;15.02;7.10;;;;;;;8.03;85.74;100114.19;5114876;27;20070;-56
2023/03/25 06:29:42;;;;;;;14.50;7.10;;;;;;;8.11;85.08;100126.00;5152518;27;20051;-56
2023/03/25 06:32:11;;;;;;;12.57;7.30;;;;;;;8.12;84.87;100130.38;5138452;27;20031;-56
2023/03/25 06:34:38;;;;;;;14.07;7.05;;;;;;;8.13;85.26;100120.63;5132720;27;20542;-56
2023/03/25 06:37:04;;;;;;;12.98;7.63;;;;;;;8.19;84.11;100130.81;5132709;27;20064;-56
2023/03/25 06:39:30;;;;;;;15.70;7.25;;;;;;;8.17;84.62;100120.31;5132642;27;20023;-56
2023/03/25 06:41:59;;;;;;;19.15;7.30;;;;;;;8.24;84.01;100122.59;5119599;27;20029;-57
2023/03/25 06:44:26;;;;;;;14.77;7.43;;;;;;;8.27;83.44;100128.53;5134543;27;20023;-56
2023/03/25 06:46:54;;;;;;;14.15;7.63;;;;;;;8.26;84.01;100133.91;5153134;27;20034;-56
2023/03/25 06:49:21;;;;;;;15.37;7.60;;;;;;;8.35;84.11;100136.84;5153185;27;20071;-56
2023/03/25 06:51:46;;;;;;;12.25;7.68;;;;;;;8.37;84.41;100137.56;5153049;27;20026;-56
2023/03/25 06:54:11;;;;;;;16.13;7.97;;;;;;;8.46;83.93;100145.91;5151767;27;20026;-57
2023/03/25 06:56:37;;;;;;;16.60;7.93;;;;;;;8.34;85.16;100127.16;5134522;27;20396;-56
2023/03/25 06:59:04;;;;;;;17.85;7.78;;;;;;;8.35;84.76;100139.47;5153373;27;20034;-57
2023/03/25 07:01:29;;;;;;;14.95;7.93;;;;;;;8.45;83.99;100144.22;5134208;27;20027;-57
2023/03/25 07:03:55;;;;;;;20.73;7.95;;;;;;;8.48;84.42;100146.66;5140107;27;20046;-57
2023/03/25 07:06:21;;;;;;;15.43;7.45;;;;;;;8.46;84.84;100144.09;5113752;28;20027;-56
2023/03/25 07:08:48;;;;;;;14.75;7.32;;;;;;;8.50;84.75;100150.03;5132535;28;20023;-56
2023/03/25 07:11:15;;;;;;;15.00;7.35;;;;;;;8.52;84.29;100143.69;5113777;28;20019;-57
2023/03/25 07:13:40;;;;;;;18.73;8.43;;;;;;;8.63;84.59;100143.00;5133718;27;20023;-57
2023/03/25 07:16:07;;;;;;;18.70;7.32;;;;;;;8.64;84.39;100152.63;5115828;27;20114;-56
2023/03/25 07:18:32;;;;;;;21.08;8.10;;;;;;;8.73;82.96;100144.06;5136408;27;20907;-56
2023/03/25 07:21:00;;;;;;;16.83;7.53;;;;;;;8.59;85.73;100139.69;5117902;27;20057;-56
2023/03/25 07:23:26;;;;;;;21.77;7.95;;;;;;;8.63;86.39;100141.19;5137640;27;20506;-56
2023/03/25 07:25:51;;;;;;;15.88;8.18;;;;;;;8.64;84.54;100153.47;5117382;27;20031;-56
2023/03/25 07:28:20;;;;;;;16.80;7.70;;;;;;;8.46;85.84;100135.28;5145361;27;20037;-57
2023/03/25 07:30:45;;;;;;;18.50;8.55;;;;;;;8.54;86.65;100144.44;5155190;27;20226;-56
2023/03/25 07:33:11;;;;;;;19.33;8.27;;;;;;;8.51;87.18;100151.75;5136421;27;20035;-56
2023/03/25 07:35:36;;;;;;;21.08;7.93;;;;;;;8.44;88.12;100158.38;5135850;27;20098;-57
2023/03/25 07:38:02;;;;;;;17.17;7.50;;;;;;;8.44;87.71;100151.28;5136132;27;20272;-57
2023/03/25 07:40:27;;;;;;;20.52;7.60;;;;;;;8.48;87.49;100158.09;5135321;27;20035;-56
2023/03/25 07:42:53;;;;;;;19.92;8.05;;;;;;;8.36;89.42;100166.81;5137101;27;20023;-56
2023/03/25 07:45:18;;;;;;;14.00;7.78;;;;;;;8.32;89.13;100157.34;5116984;27;20114;-56
2023/03/25 07:47:49;;;;;;;24.17;8.02;;;;;;;8.39;88.42;100158.69;5135747;27;20027;-57
2023/03/25 07:50:19;;;;;;;25.35;8.05;;;;;;;8.23;89.94;100169.38;5135766;27;20087;-57
2023/03/25 07:52:45;;;;;;;21.60;8.07;;;;;;;8.26;90.41;100165.69;5136975;27;20026;-56
2023/03/25 07:55:11;;;;;;;21.13;8.55;;;;;;;8.22;90.42;100156.25;5117445;27;20019;-56
2023/03/25 07:57:36;;;;;;;20.20;8.35;;;;;;;8.36;89.54;100167.66;5135753;27;20028;-56
2023/03/25 08:00:05;;;;;;;22.15;9.30;;;;;;;8.42;88.61;100171.75;5135763;27;20023;-56
2023/03/25 08:02:30;;;;;;;21.15;8.90;;;;;;;8.47;89.09;100171.44;5118947;27;20027;-56
2023/03/25 08:04:56;;;;;;;18.15;8.00;;;;;;;8.56;88.96;100176.13;5137436;27;20026;-57
2023/03/25 08:07:22;;;;;;;20.88;9.27;;;;;;;8.62;87.08;100171.31;5137662;27;20068;-57
2023/03/25 08:09:47;;;;;;;16.83;8.43;;;;;;;8.83;87.27;100176.13;5155914;27;20026;-56
2023/03/25 08:12:12;;;;;;;20.90;8.43;;;;;;;8.96;85.62;100181.47;5137713;27;20011;-56
2023/03/25 08:14:38;;;;;;;15.88;7.40;;;;;;;9.13;86.13;100193.59;5139449;27;20454;-57
2023/03/25 08:17:05;;;;;;;16.92;7.85;;;;;;;9.10;86.37;100184.88;5116723;27;20114;-56
2023/03/25 08:19:30;;;;;;;21.98;8.38;;;;;;;9.09;88.41;100191.16;5116748;27;20027;-56
2023/03/25 08:21:56;;;;;;;19.02;8.02;;;;;;;8.99;90.16;100202.47;5117196;27;20027;-56
2023/03/25 08:24:23;;;;;;;19.58;7.20;;;;;;;8.86;89.97;100207.75;5140811;27;20030;-56
2023/03/25 08:26:49;;;;;;;19.95;7.65;;;;;;;8.76;92.67;100215.44;5137525;27;20377;-57
2023/03/25 08:29:16;;;;;;;19.02;8.52;;;;;;;8.79;91.50;100204.63;5155941;27;20019;-57
2023/03/25 08:31:45;;;;;;;23.00;8.73;;;;;;;8.75;92.61;100197.84;5136615;27;20123;-56
2023/03/25 08:34:11;;;;;;;18.92;9.13;;;;;;;8.68;94.52;100208.94;5138146;27;20359;-56
2023/03/25 08:36:38;;;;;;;22.90;8.82;;;;;;;8.60;95.95;100205.00;5155600;27;20057;-57
2023/03/25 08:39:10;;;;;;;22.45;8.55;;;;;;;8.52;95.15;100209.94;5136592;27;20019;-56
2023/03/25 08:41:38;;;;;;;18.50;8.13;;;;;;;8.58;96.27;100200.75;5122194;27;20027;-57
2023/03/25 08:44:05;;;;;;;20.67;9.55;;;;;;;8.60;97.45;100207.66;5113257;27;20366;-57
2023/03/25 08:46:33;;;;;;;21.05;8.73;;;;;;;8.65;96.80;100207.38;5129888;27;20053;-57
2023/03/25 08:49:01;;;;;;;20.48;9.48;;;;;;;8.71;96.21;100211.41;5116941;27;20474;-56
2023/03/25 08:51:27;;;;;;;21.40;9.73;;;;;;;8.68;96.55;100209.81;5133593;27;20018;-56
2023/03/25 08:53:52;;;;;;;25.25;9.45;;;;;;;8.87;95.96;100204.13;5133755;27;20466;-56
2023/03/25 08:56:18;;;;;;;21.33;8.27;;;;;;;8.98;95.33;100209.56;5134021;27;20426;-56
2023/03/25 08:58:43;;;;;;;25.55;9.18;;;;;;;9.19;94.68;100206.44;5134915;27;20015;-56
2023/03/25 09:01:10;;;;;;;24.27;8.90;;;;;;;9.19;94.59;100209.94;5144871;27;20378;-56
2023/03/25 09:03:37;;;;;;;22.75;8.40;;;;;;;9.21;94.26;100210.69;5115349;27;20023;-57
2023/03/25 09:06:06;;;;;;;25.13;8.98;;;;;;;9.43;92.90;100211.88;5133715;27;20023;-57
2023/03/25 09:08:32;;;;;;;20.80;8.95;;;;;;;9.47;92.63;100223.97;5133446;27;20023;-57
2023/03/25 09:11:00;;;;;;;17.58;8.82;;;;;;;9.51;91.98;100221.00;5140511;27;20033;-57
2023/03/25 09:13:25;;;;;;;25.63;9.10;;;;;;;9.84;91.92;100213.47;5133377;27;20084;-57
2023/03/25 09:15:51;;;;;;;20.77;8.70;;;;;;;10.12;90.16;100215.03;5135081;27;20015;-57
2023/03/25 09:18:16;;;;;;;23.25;9.05;;;;;;;10.26;87.83;100216.69;5133955;27;20486;-56
2023/03/25 09:20:42;;;;;;;20.95;8.57;;;;;;;10.38;89.48;100207.84;5133567;27;20023;-57
2023/03/25 09:23:08;;;;;;;18.73;8.55;;;;;;;10.61;87.14;100201.69;5108556;28;20108;-56
2023/03/25 09:25:34;;;;;;;22.38;8.90;;;;;;;10.69;86.32;100187.84;5132079;27;20057;-57
2023/03/25 09:28:00;;;;;;;23.33;8.18;;;;;;;10.88;86.44;100211.25;5114785;27;20031;-57
2023/03/25 09:30:25;;;;;;;25.77;8.60;;;;;;;10.88;84.11;100221.88;5114546;27;20051;-56
2023/03/25 09:32:51;;;;;;;19.83;7.88;;;;;;;11.13;85.68;100220.91;5125612;27;20076;-57
2023/03/25 09:35:16;;;;;;;24.08;8.40;;;;;;;11.12;81.79;100211.25;5143131;27;20027;-57
2023/03/25 09:37:43;;;;;;;20.58;8.40;;;;;;;11.27;83.02;100220.72;5132661;27;20104;-57
2023/03/25 09:40:13;;;;;;;20.33;8.57;;;;;;;11.35;80.60;100212.13;5094689;28;20115;-56
2023/03/25 09:43:03;;;;;;;22.75;8.38;;;;;;;11.44;80.90;100221.22;5129801;27;20132;-56
2023/03/25 09:45:35;;;;;;;23.88;7.80;;;;;;;11.54;80.23;100233.72;5133303;27;20027;-56
2023/03/25 09:48:22;;;;;;;18.63;8.38;;;;;;;11.47;79.84;100236.97;5132879;27;20042;-56
2023/03/25 09:50:47;;;;;;;19.55;6.72;;;;;;;11.55;80.84;100223.91;5132359;27;20027;-57
2023/03/25 09:53:34;;;;;;;17.25;7.13;;;;;;;11.40;79.13;100225.94;5115019;27;20065;-56
2023/03/25 09:56:00;;;;;;;17.27;6.70;;;;;;;11.50;79.30;100226.97;5145252;27;20023;-57
2023/03/25 09:58:46;;;;;;;17.58;5.85;;;;;;;11.63;77.63;100242.81;5154095;27;20030;-57
2023/03/25 10:01:18;;;;;;;20.50;6.45;;;;;;;11.89;77.62;100237.31;5153715;27;20026;-57
2023/03/25 10:03:58;;;;;;;14.43;5.47;;;;;;;12.01;76.60;100236.34;5154210;27;20552;-56
2023/03/25 10:06:25;;;;;;;21.20;5.95;;;;;;;11.97;75.26;100230.44;5151901;27;20027;-57
2023/03/25 10:09:18;;;;;;;17.60;6.28;;;;;;;12.11;77.12;100237.31;5135468;27;20105;-56
2023/03/25 10:12:21;;;;;;;19.73;6.47;;;;;;;12.34;76.03;100229.31;5114536;27;20030;-57
2023/03/25 10:15:11;;;;;;;20.48;6.15;;;;;;;12.27;74.21;100229.81;5114384;27;20183;-57
2023/03/25 10:18:01;;;;;;;15.25;6.22;;;;;;;12.49;73.79;100210.22;5114614;27;20056;-57
2023/03/25 10:20:59;;;;;;;28.05;7.50;;;;;;;12.50;73.38;100230.63;5133899;27;20031;-57
2023/03/25 10:23:40;;;;;;;26.25;6.13;;;;;;;12.53;72.75;100225.97;5149628;27;20478;-56
2023/03/25 10:26:15;;;;;;;20.55;6.25;;;;;;;12.41;72.19;100220.69;5132842;27;20027;-57
2023/03/25 10:28:49;;;;;;;22.75;7.03;;;;;;;12.43;73.06;100228.56;5133121;27;20478;-56
2023/03/25 10:31:19;;;;;;;22.10;7.13;;;;;;;12.30;70.41;100227.88;5132241;27;20046;-56
2023/03/25 10:33:50;;;;;;;;;;;;;;;12.55;70.75;100234.72;5133341;27;20076;-57
2023/03/25 10:36:18;;;;;;;23.83;7.53;;;;;;;12.15;71.11;100219.28;5112036;28;20361;-56
2023/03/25 10:38:47;;;;;;;20.67;7.30;;;;;;;12.01;69.97;100236.34;5113102;27;20023;-57
2023/03/25 10:41:24;;;;;;;19.52;7.22;;;;;;;12.12;70.67;100235.50;5108717;28;20501;-57
2023/03/25 10:43:50;;;;;;;18.60;6.90;;;;;;;12.25;70.55;100223.72;5132512;27;20027;-57
2023/03/25 10:46:21;;;;;;;20.13;6.25;;;;;;;12.44;69.57;100235.56;5131643;27;20027;-57
2023/03/25 10:48:47;;;;;;;22.17;7.32;;;;;;;12.56;66.46;100225.72;5131881;27;20023;-56
2023/03/25 10:51:20;;;;;;;20.52;5.45;;;;;;;12.67;65.49;100252.38;5112430;27;20477;-58
2023/03/25 10:53:51;;;;;;;17.65;6.07;;;;;;;12.85;65.77;100239.34;5125311;27;20049;-57
2023/03/25 10:56:23;;;;;;;16.77;5.78;;;;;;;13.04;63.55;100258.22;5114218;27;20033;-57
2023/03/25 10:58:55;;;;;;;22.60;6.28;;;;;;;12.98;63.38;100250.72;5120083;28;20538;-57
2023/03/25 11:01:33;;;;;;;17.83;5.18;;;;;;;13.23;62.47;100236.16;5112775;28;20031;-56
2023/03/25 11:04:00;;;;;;;15.15;5.05;;;;;;;13.40;60.15;100232.13;5131773;27;20055;-56
2023/03/25 11:06:29;;;;;;;17.05;5.15;;;;;;;13.63;60.56;100255.06;5132340;28;20064;-57
2023/03/25 11:09:16;;;;;;;13.15;5.20;;;;;;;13.40;59.85;100277.53;5133679;27;20489;-57
2023/03/25 11:11:46;;;;;;;14.52;5.18;;;;;;;13.06;59.02;100252.75;5114172;28;20083;-56
2023/03/25 11:14:13;;;;;;;17.30;5.20;;;;;;;12.84;61.59;100265.22;5132466;27;20386;-56
2023/03/25 11:16:48;;;;;;;13.48;4.10;;;;;;;12.57;57.82;100273.63;5132167;28;20378;-57
2023/03/25 11:19:51;;;;;;;14.70;4.15;;;;;;;13.06;56.43;100272.31;5113448;28;20027;-57
2023/03/25 11:22:33;;;;;;;10.90;4.20;;;;;;;12.82;57.58;100274.31;5107988;28;20042;-57
2023/03/25 11:25:14;;;;;;;12.00;4.68;;;;;;;12.71;57.62;100261.84;5121832;28;20023;-57
2023/03/25 11:27:46;;;;;;;9.68;3.85;;;;;;;12.87;57.59;100262.28;5130746;28;20030;-56
2023/03/25 11:30:20;;;;;;;13.07;4.40;;;;;;;12.82;57.83;100263.63;5131948;27;20035;-57
2023/03/25 11:33:01;;;;;;;14.77;3.90;;;;;;;12.83;57.80;100268.84;5132174;28;20427;-56
2023/03/25 11:35:29;;;;;;;9.88;4.32;;;;;;;12.86;57.65;100262.44;5132423;27;20028;-56
2023/03/25 11:38:01;;;;;;;12.48;4.15;;;;;;;13.41;56.05;100287.22;5132388;28;20445;-57
2023/03/25 11:40:28;;;;;;;14.82;4.07;;;;;;;13.22;55.12;100263.84;5111649;28;20106;-57
2023/03/25 11:42:56;;;;;;;11.32;4.18;;;;;;;13.35;55.38;100255.69;5111640;28;20034;-56